createdAt,value
2018-04-08T00:01:53.621Z,11.41
2018-04-08T00:04:24.060Z,11.37
2018-04-08T00:06:54.574Z,10.56
2018-04-08T00:09:25.056Z,10.24
2018-04-08T00:11:55.743Z,10.47
2018-04-08T00:14:25.752Z,10.41
2018-04-08T00:16:56.032Z,10.20
2018-04-08T00:19:26.066Z,10.01
2018-04-08T00:21:56.936Z,10.05
2018-04-08T00:24:26.880Z,10.12
2018-04-08T00:26:57.612Z,10.22
2018-04-08T00:29:28.403Z,10.17
2018-04-08T00:31:58.206Z,10.07
2018-04-08T00:34:29.107Z,9.92
2018-04-08T00:36:59.573Z,9.82
2018-04-08T00:39:29.481Z,9.90
2018-04-08T00:41:59.662Z,9.88
2018-04-08T00:44:30.164Z,9.85
2018-04-08T00:47:00.913Z,9.82
2018-04-08T00:49:31.350Z,9.84
2018-04-08T00:52:01.950Z,9.95
2018-04-08T00:54:33.315Z,10.10
2018-04-08T00:57:03.386Z,10.02
2018-04-08T00:59:34.426Z,10.11
2018-04-08T01:02:04.775Z,10.11
2018-04-08T01:04:35.543Z,9.98
2018-04-08T01:07:07.069Z,9.56
2018-04-08T01:09:37.528Z,9.45
2018-04-08T01:12:07.886Z,9.64
2018-04-08T01:14:38.426Z,9.61
2018-04-08T01:17:09.411Z,9.71
2018-04-08T01:19:39.622Z,9.72
2018-04-08T01:22:09.459Z,9.79
2018-04-08T01:24:39.696Z,9.80
2018-04-08T01:27:10.427Z,9.75
2018-04-08T01:29:41.679Z,9.61
2018-04-08T01:32:12.173Z,9.40
2018-04-08T01:34:42.597Z,9.43
2018-04-08T01:37:13.329Z,9.42
2018-04-08T01:39:43.960Z,9.37
2018-04-08T01:42:14.149Z,9.38
2018-04-08T01:44:44.379Z,9.31
2018-04-08T01:47:14.168Z,9.15
2018-04-08T01:49:44.676Z,9.18
2018-04-08T01:52:15.278Z,9.17
2018-04-08T01:54:45.796Z,9.21
2018-04-08T01:57:15.566Z,9.29
2018-04-08T01:59:46.720Z,9.37
2018-04-08T02:02:17.025Z,9.43
2018-04-08T02:04:47.502Z,9.43
2018-04-08T02:07:18.043Z,9.40
2018-04-08T02:09:48.571Z,9.39
2018-04-08T02:12:18.960Z,9.47
2018-04-08T02:14:49.352Z,9.47
2018-04-08T02:17:19.702Z,9.59
2018-04-08T02:19:50.478Z,9.72
2018-04-08T02:22:20.798Z,9.55
2018-04-08T02:24:51.646Z,9.33
2018-04-08T02:27:22.144Z,9.29
2018-04-08T02:29:52.730Z,9.41
2018-04-08T02:32:22.477Z,9.72
2018-04-08T02:34:52.474Z,9.36
2018-04-08T02:37:22.782Z,9.08
2018-04-08T02:39:53.161Z,8.91
2018-04-08T02:42:23.519Z,9.02
2018-04-08T02:44:53.788Z,8.90
2018-04-08T02:47:24.215Z,8.97
2018-04-08T02:49:54.653Z,8.99
2018-04-08T02:52:25.219Z,8.95
2018-04-08T02:54:55.891Z,9.05
2018-04-08T02:57:25.657Z,9.33
2018-04-08T02:59:56.184Z,9.13
2018-04-08T03:02:26.672Z,8.87
2018-04-08T03:04:57.170Z,9.08
2018-04-08T03:07:27.431Z,8.93
2018-04-08T03:09:58.193Z,8.90
2018-04-08T03:12:28.095Z,8.89
2018-04-08T03:14:58.407Z,8.51
2018-04-08T03:17:28.864Z,8.48
2018-04-08T03:19:58.966Z,8.48
2018-04-08T03:22:29.805Z,8.55
2018-04-08T03:25:00.604Z,8.53
2018-04-08T03:27:31.200Z,8.51
2018-04-08T03:30:01.612Z,8.54
2018-04-08T03:32:32.091Z,8.64
2018-04-08T03:35:02.244Z,8.52
2018-04-08T03:37:31.997Z,8.54
2018-04-08T03:40:02.500Z,8.67
2018-04-08T03:42:32.293Z,8.66
2018-04-08T03:45:02.734Z,8.78
2018-04-08T03:47:33.432Z,8.65
2018-04-08T03:50:04.150Z,8.68
2018-04-08T03:52:34.665Z,8.79
2018-04-08T03:55:04.489Z,8.57
2018-04-08T03:57:34.198Z,8.34
2018-04-08T04:00:04.038Z,8.44
2018-04-08T04:02:33.944Z,8.39
2018-04-08T04:05:03.805Z,8.50
2018-04-08T04:07:33.848Z,8.59
2018-04-08T04:10:03.591Z,8.71
2018-04-08T04:12:33.425Z,8.80
2018-04-08T04:15:03.220Z,8.74
2018-04-08T04:17:32.954Z,8.72
2018-04-08T04:20:14.456Z,8.74
2018-04-08T04:22:55.943Z,8.77
2018-04-08T04:25:51.400Z,8.73
2018-04-08T04:28:21.283Z,8.66
2018-04-08T04:30:51.120Z,8.72
2018-04-08T04:33:20.872Z,8.82
2018-04-08T04:35:51.414Z,8.90
2018-04-08T04:38:21.887Z,9.03
2018-04-08T04:40:52.154Z,9.00
2018-04-08T04:43:22.378Z,8.98
2018-04-08T04:45:52.817Z,9.11
2018-04-08T04:48:23.289Z,9.12
2018-04-08T04:50:53.792Z,9.00
2018-04-08T04:53:23.850Z,9.06
2018-04-08T04:55:54.421Z,9.01
2018-04-08T04:58:24.540Z,9.14
2018-04-08T05:00:54.996Z,9.26
2018-04-08T05:03:25.343Z,9.42
2018-04-08T05:05:55.667Z,9.68
2018-04-08T05:08:26.171Z,9.72
2018-04-08T05:10:55.991Z,9.86
2018-04-08T05:13:25.727Z,10.03
2018-04-08T05:15:55.506Z,10.25
2018-04-08T05:18:25.273Z,10.51
2018-04-08T05:20:54.980Z,10.69
2018-04-08T05:23:24.782Z,10.93
2018-04-08T05:25:54.554Z,11.34
2018-04-08T05:28:24.333Z,11.69
2018-04-08T05:30:54.092Z,12.02
2018-04-08T05:33:23.916Z,12.21
2018-04-08T05:35:53.696Z,12.38
2018-04-08T05:38:23.474Z,12.37
2018-04-08T05:40:53.175Z,12.50
2018-04-08T05:43:22.965Z,12.61
2018-04-08T05:45:52.833Z,12.48
2018-04-08T05:48:22.666Z,12.52
2018-04-08T05:50:52.411Z,12.81
2018-04-08T05:53:22.154Z,13.07
2018-04-08T05:55:52.016Z,13.37
2018-04-08T05:58:21.932Z,13.64
2018-04-08T06:00:51.795Z,13.72
2018-04-08T06:03:21.753Z,13.80
2018-04-08T06:05:51.637Z,14.04
2018-04-08T06:08:21.571Z,14.07
2018-04-08T06:10:51.309Z,14.30
2018-04-08T06:13:21.058Z,14.52
2018-04-08T06:15:50.887Z,14.83
2018-04-08T06:18:20.655Z,14.74
2018-04-08T06:20:50.575Z,14.95
2018-04-08T06:23:20.392Z,14.93
2018-04-08T06:25:50.332Z,15.23
2018-04-08T06:28:20.152Z,15.36
2018-04-08T06:30:49.970Z,15.57
2018-04-08T06:33:19.710Z,15.81
2018-04-08T06:35:49.549Z,15.95
2018-04-08T06:38:19.404Z,16.15
2018-04-08T06:40:49.158Z,16.24
2018-04-08T06:43:19.025Z,16.48
2018-04-08T06:45:48.855Z,16.66
2018-04-08T06:48:18.673Z,16.71
2018-04-08T06:50:48.443Z,16.80
2018-04-08T06:53:18.195Z,16.97
2018-04-08T06:55:48.002Z,17.03
2018-04-08T06:58:17.789Z,17.25
2018-04-08T07:00:47.594Z,17.38
2018-04-08T07:03:17.460Z,17.40
2018-04-08T07:05:47.237Z,17.49
2018-04-08T07:08:17.079Z,17.59
2018-04-08T07:10:46.833Z,17.72
2018-04-08T07:13:16.582Z,17.78
2018-04-08T07:15:46.340Z,17.95
2018-04-08T07:18:16.198Z,18.07
2018-04-08T07:20:46.098Z,18.17
2018-04-08T07:23:15.934Z,18.24
2018-04-08T07:25:45.783Z,18.16
2018-04-08T07:28:15.559Z,18.13
2018-04-08T07:30:45.286Z,18.26
2018-04-08T07:33:15.055Z,18.40
2018-04-08T07:35:44.842Z,18.60
2018-04-08T07:38:14.709Z,18.93
2018-04-08T07:40:44.420Z,19.14
2018-04-08T07:43:14.223Z,19.26
2018-04-08T07:45:44.111Z,19.24
2018-04-08T07:48:13.873Z,19.17
2018-04-08T07:50:43.634Z,19.38
2018-04-08T07:53:13.335Z,19.26
2018-04-08T07:55:43.096Z,19.24
2018-04-08T07:58:12.892Z,19.64
2018-04-08T08:00:42.676Z,19.65
2018-04-08T08:03:12.490Z,19.87
2018-04-08T08:05:42.270Z,19.63
2018-04-08T08:08:12.036Z,19.94
2018-04-08T08:10:41.803Z,20.17
2018-04-08T08:13:11.530Z,20.44
2018-04-08T08:15:41.406Z,20.57
2018-04-08T08:18:11.234Z,20.66
2018-04-08T08:20:41.327Z,20.67
2018-04-08T08:23:11.218Z,20.72
2018-04-08T08:25:40.958Z,20.67
2018-04-08T08:28:10.784Z,20.77
2018-04-08T08:30:40.491Z,20.83
2018-04-08T08:33:10.215Z,20.84
2018-04-08T08:35:40.020Z,21.16
2018-04-08T08:38:09.804Z,21.43
2018-04-08T08:40:39.540Z,21.78
2018-04-08T08:43:09.449Z,21.99
2018-04-08T08:45:39.253Z,21.85
2018-04-08T08:48:09.111Z,21.90
2018-04-08T08:50:38.812Z,21.92
2018-04-08T08:53:08.566Z,21.96
2018-04-08T08:55:38.383Z,22.12
2018-04-08T08:58:08.082Z,21.99
2018-04-08T09:00:37.939Z,22.44
2018-04-08T09:03:07.751Z,22.59
2018-04-08T09:05:37.525Z,22.39
2018-04-08T09:08:07.772Z,22.59
2018-04-08T09:10:37.814Z,22.84
2018-04-08T09:13:08.435Z,22.95
2018-04-08T09:15:38.863Z,23.52
2018-04-08T09:18:08.889Z,23.06
2018-04-08T09:20:44.962Z,23.43
2018-04-08T09:23:35.305Z,23.74
2018-04-08T09:26:06.096Z,23.45
2018-04-08T09:28:36.483Z,23.57
2018-04-08T09:31:06.567Z,23.20
2018-04-08T09:33:36.537Z,23.24
2018-04-08T09:36:07.222Z,23.14
2018-04-08T09:38:37.183Z,23.72
2018-04-08T09:41:07.483Z,24.37
2018-04-08T09:43:38.599Z,24.61
2018-04-08T09:46:09.181Z,24.99
2018-04-08T09:48:39.563Z,24.74
2018-04-08T09:51:10.018Z,24.75
2018-04-08T09:53:40.028Z,24.91
2018-04-08T09:56:10.237Z,24.73
2018-04-08T09:58:40.886Z,24.63
2018-04-08T10:01:27.469Z,24.52
2018-04-08T10:03:57.952Z,25.07
2018-04-08T10:06:28.324Z,25.65
2018-04-08T10:08:59.311Z,25.29
2018-04-08T10:11:29.940Z,25.03
2018-04-08T10:14:00.401Z,24.77
2018-04-08T10:16:31.142Z,24.92
2018-04-08T10:19:01.130Z,24.91
2018-04-08T10:21:32.216Z,24.68
2018-04-08T10:24:04.151Z,24.91
2018-04-08T10:26:35.183Z,25.08
2018-04-08T10:29:05.633Z,25.42
2018-04-08T10:31:35.440Z,25.62
2018-04-08T10:34:05.794Z,25.98
2018-04-08T10:36:36.674Z,25.78
2018-04-08T10:39:06.894Z,24.78
2018-04-08T10:41:36.902Z,24.86
2018-04-08T10:44:07.638Z,25.26
2018-04-08T10:46:38.449Z,25.64
2018-04-08T10:49:08.261Z,25.74
2018-04-08T10:51:39.462Z,25.80
2018-04-08T10:54:09.941Z,26.06
2018-04-08T10:56:39.896Z,26.43
2018-04-08T10:59:09.634Z,26.46
2018-04-08T11:01:39.481Z,25.46
2018-04-08T11:04:09.261Z,25.27
2018-04-08T11:06:39.854Z,25.83
2018-04-08T11:09:09.975Z,26.26
2018-04-08T11:11:40.353Z,26.21
2018-04-08T11:14:10.407Z,26.07
2018-04-08T11:16:40.433Z,26.22
2018-04-08T11:19:10.952Z,26.82
2018-04-08T11:21:41.880Z,27.06
2018-04-08T11:24:11.999Z,26.73
2018-04-08T11:26:42.915Z,26.66
2018-04-08T11:29:13.456Z,26.73
2018-04-08T11:31:43.803Z,26.96
2018-04-08T11:34:14.130Z,27.23
2018-04-08T11:36:44.892Z,26.88
2018-04-08T11:39:14.990Z,26.91
2018-04-08T11:41:44.914Z,27.87
2018-04-08T11:44:14.786Z,28.20
2018-04-08T11:46:44.761Z,28.66
2018-04-08T11:49:14.562Z,28.24
2018-04-08T11:51:45.145Z,27.68
2018-04-08T11:54:15.876Z,28.03
2018-04-08T11:56:46.507Z,28.46
2018-04-08T11:59:17.025Z,29.09
2018-04-08T12:01:47.714Z,29.30
2018-04-08T12:04:18.131Z,29.90
2018-04-08T12:06:48.574Z,30.29
2018-04-08T12:09:18.994Z,30.40
2018-04-08T12:11:49.616Z,29.56
